Welcome to Des Moines Iowa Weather. I am an independent private personal weather station on the Northwest Side of Des Moines, Iowa. Just East of Windsor Heights and just West of Glendale . This site is also mobile friendly.

There are no active watches, warnings or advisories


Visit our other weather sites:

Historical Data

Weather Station Setup



Weather Underground History page Text

Daily Summary for February 6, 2018 Units:  Metric    English   Both
« Previous Day
Next Day »
Daily Weekly Monthly Yearly Custom
  High: Low: Average:
Temperature: -10.9 °C -20.8 °C -15.1 °C
Dew Point: -14.4 °C -22.8 °C -17.8 °C
Humidity: 87 % 69 % 80 %
Wind Speed: 6.4 km/h 0 km/h 1.4 km/h
Wind Gust: 17.7 km/h - -
Wind:- - NNE
Pressure: 1034.8 hPa 1029 hPa -
Precipitation: 0 mm    
Historical Graphs
 
 
Tabular Data for February 6, 2018
Time Temperature Dew Point Pressure Wind Wind Speed Wind Gust Humidity Rainfall Rate (Hourly)
00:08 -14.7 °C -16.1 °C 1029.7 hPa North 4.8 km/h 16.1 km/h 87 % 0 mm
00:23 -14.9 °C -16.7 °C 1029.7 hPa North 3.2 km/h 14.5 km/h 86 % 0 mm
00:39 -15.1 °C -16.7 °C 1029 hPa North 3.2 km/h 14.5 km/h 86 % 0 mm
00:54 -15.3 °C -17.2 °C 1029.7 hPa NNE 4.8 km/h 17.7 km/h 85 % 0 mm
01:09 -15.6 °C -17.2 °C 1030.4 hPa NE 4.8 km/h 14.5 km/h 85 % 0 mm
01:24 -15.9 °C -17.8 °C 1030 hPa North 1.6 km/h 16.1 km/h 84 % 0 mm
01:39 -16.1 °C -18.3 °C 1030.4 hPa North 4.8 km/h 16.1 km/h 84 % 0 mm
01:54 -16.3 °C -18.3 °C 1030.4 hPa North 4.8 km/h 12.9 km/h 84 % 0 mm
02:09 -16.5 °C -18.3 °C 1030.4 hPa Calm   14.5 km/h 84 % 0 mm
02:24 -16.7 °C -18.9 °C 1030.4 hPa NNE 1.6 km/h 6.4 km/h 84 % 0 mm
02:40 -16.9 °C -18.9 °C 1031 hPa North 4.8 km/h 9.7 km/h 83 % 0 mm
02:54 -17.2 °C -19.4 °C 1031.4 hPa North 1.6 km/h 3.2 km/h 83 % 0 mm
03:18 -17.7 °C -20 °C 1032.1 hPa Calm   1.6 km/h 83 % 0 mm
03:24 -18.2 °C -20.6 °C 1032.1 hPa Calm     83 % 0 mm
03:39 -18.7 °C -21.1 °C 1032.7 hPa Calm     82 % 0 mm
03:54 -19.1 °C -21.1 °C 1033.1 hPa North 1.6 km/h 4.8 km/h 83 % 0 mm
04:10 -19.4 °C -21.7 °C 1033.1 hPa North 3.2 km/h 12.9 km/h 83 % 0 mm
04:25 -19.5 °C -21.7 °C 1033.1 hPa North 4.8 km/h 9.7 km/h 83 % 0 mm
04:40 -19.6 °C -21.7 °C 1032.7 hPa North 1.6 km/h 6.4 km/h 83 % 0 mm
04:55 -19.7 °C -21.7 °C 1032.7 hPa North 3.2 km/h 12.9 km/h 83 % 0 mm
05:10 -19.9 °C -22.2 °C 1033.1 hPa North 1.6 km/h 6.4 km/h 83 % 0 mm
05:25 -20 °C -22.2 °C 1032.7 hPa Calm   4.8 km/h 83 % 0 mm
05:40 -20.2 °C -22.2 °C 1032.7 hPa Calm   3.2 km/h 83 % 0 mm
05:55 -20.3 °C -22.2 °C 1032.7 hPa Calm   1.6 km/h 83 % 0 mm
06:10 -20.6 °C -22.8 °C 1032.4 hPa Calm   3.2 km/h 83 % 0 mm
06:25 -20.7 °C -22.8 °C 1032.7 hPa Calm   4.8 km/h 83 % 0 mm
06:40 -20.8 °C -22.8 °C 1032.7 hPa North 1.6 km/h 6.4 km/h 83 % 0 mm
06:55 -20.7 °C -22.8 °C 1032.7 hPa North 3.2 km/h 4.8 km/h 83 % 0 mm
07:10 -20.6 °C -22.8 °C 1033.4 hPa Calm   4.8 km/h 83 % 0 mm
07:26 -20.5 °C -22.8 °C 1033.4 hPa NE 1.6 km/h 4.8 km/h 84 % 0 mm
07:41 -20.5 °C -22.8 °C 1033.4 hPa Calm   4.8 km/h 84 % 0 mm
07:56 -20.5 °C -22.8 °C 1033.4 hPa Calm   6.4 km/h 84 % 0 mm
08:11 -20.5 °C -22.8 °C 1033.7 hPa Calm   6.4 km/h 83 % 0 mm
08:26 -20.4 °C -22.2 °C 1033.7 hPa Calm   4.8 km/h 84 % 0 mm
08:41 -20.2 °C -22.2 °C 1034.4 hPa Calm   3.2 km/h 84 % 0 mm
08:56 -19.7 °C -21.7 °C 1034.4 hPa North 3.2 km/h 6.4 km/h 84 % 0 mm
09:11 -19.1 °C -21.1 °C 1034.4 hPa Calm   4.8 km/h 84 % 0 mm
09:26 -18.6 °C -20.6 °C 1034.8 hPa North 4.8 km/h 6.4 km/h 84 % 0 mm
09:41 -18 °C -20 °C 1034.8 hPa North 3.2 km/h 4.8 km/h 84 % 0 mm
09:56 -17.4 °C -19.4 °C 1034.4 hPa NE 3.2 km/h 6.4 km/h 83 % 0 mm
10:11 -16.9 °C -19.4 °C 1034.8 hPa Calm   6.4 km/h 83 % 0 mm
10:26 -16.6 °C -18.9 °C 1034.4 hPa NE 1.6 km/h 8 km/h 82 % 0 mm
10:42 -15.7 °C -18.3 °C 1034.8 hPa ENE 3.2 km/h 8 km/h 81 % 0 mm
10:57 -15.3 °C -18.3 °C 1034.4 hPa North 4.8 km/h 6.4 km/h 80 % 0 mm
11:12 -15.2 °C -18.3 °C 1034.1 hPa ENE 3.2 km/h 6.4 km/h 79 % 0 mm
11:27 -14.7 °C -17.8 °C 1034.1 hPa ENE 1.6 km/h 9.7 km/h 79 % 0 mm
11:42 -13.9 °C -17.2 °C 1034.1 hPa ENE 3.2 km/h 4.8 km/h 78 % 0 mm
11:57 -12.7 °C -16.1 °C 1033.7 hPa Calm   4.8 km/h 75 % 0 mm
12:12 -12.3 °C -16.1 °C 1033.4 hPa Calm   6.4 km/h 74 % 0 mm
12:27 -11.9 °C -16.1 °C 1033.4 hPa ESE 1.6 km/h 4.8 km/h 71 % 0 mm
12:42 -11.9 °C -16.1 °C 1032.4 hPa Calm   9.7 km/h 70 % 0 mm
12:57 -11.3 °C -16.1 °C 1032.1 hPa ENE 4.8 km/h 11.3 km/h 69 % 0 mm
13:12 -11.8 °C -16.1 °C 1031.7 hPa East 6.4 km/h 9.7 km/h 69 % 0 mm
13:27 -11.3 °C -16.1 °C 1032.1 hPa NE 3.2 km/h 6.4 km/h 69 % 0 mm
13:42 -11.3 °C -15.6 °C 1031.7 hPa NNE 1.6 km/h 4.8 km/h 70 % 0 mm
13:58 -11.5 °C -16.1 °C 1031.4 hPa NE 3.2 km/h 6.4 km/h 70 % 0 mm
14:13 -11.6 °C -16.1 °C 1031 hPa NE 1.6 km/h 4.8 km/h 71 % 0 mm
14:28 -11.3 °C -16.1 °C 1031 hPa East 1.6 km/h 6.4 km/h 69 % 0 mm
14:48 -11.4 °C -15.6 °C 1030.7 hPa ENE 1.6 km/h 4.8 km/h 70 % 0 mm
14:58 -10.9 °C -15.6 °C 1031 hPa Calm   3.2 km/h 70 % 0 mm
15:13 -11.1 °C -15.6 °C 1031 hPa Calm   6.4 km/h 70 % 0 mm
15:28 -11.1 °C -15.6 °C 1030.7 hPa Calm   4.8 km/h 70 % 0 mm
15:43 -11.1 °C -15.6 °C 1031 hPa NE 3.2 km/h 4.8 km/h 70 % 0 mm
15:58 -11.1 °C -15.6 °C 1031.4 hPa Calm   3.2 km/h 71 % 0 mm
16:13 -11.2 °C -15 °C 1031.4 hPa Calm   3.2 km/h 72 % 0 mm
16:28 -11.1 °C -15 °C 1031.4 hPa Calm   3.2 km/h 72 % 0 mm
16:44 -11.2 °C -15 °C 1031 hPa Calm   3.2 km/h 72 % 0 mm
16:58 -11.3 °C -15.6 °C 1031 hPa Calm   3.2 km/h 72 % 0 mm
17:13 -11.6 °C -15.6 °C 1031 hPa NE 1.6 km/h 4.8 km/h 73 % 0 mm
17:28 -11.9 °C -16.1 °C 1031 hPa NE 1.6 km/h 4.8 km/h 73 % 0 mm
17:44 -12.2 °C -15.6 °C 1031 hPa Calm   4.8 km/h 75 % 0 mm
17:59 -12.3 °C -15.6 °C 1031 hPa Calm   3.2 km/h 77 % 0 mm
18:14 -12.4 °C -15.6 °C 1031 hPa NE 1.6 km/h 1.6 km/h 79 % 0 mm
18:29 -12.6 °C -15.6 °C 1031 hPa Calm   3.2 km/h 80 % 0 mm
18:44 -12.6 °C -15 °C 1031.4 hPa NNE 1.6 km/h 3.2 km/h 81 % 0 mm
18:59 -12.6 °C -15 °C 1031.4 hPa Calm   3.2 km/h 82 % 0 mm
19:14 -12.7 °C -15 °C 1031.4 hPa Calm   3.2 km/h 82 % 0 mm
19:29 -12.7 °C -15 °C 1031.4 hPa Calm   3.2 km/h 83 % 0 mm
19:44 -12.7 °C -15 °C 1031.4 hPa Calm   3.2 km/h 83 % 0 mm
19:59 -12.8 °C -15 °C 1031.4 hPa Calm   3.2 km/h 83 % 0 mm
20:14 -12.8 °C -15 °C 1031 hPa Calm   3.2 km/h 84 % 0 mm
20:29 -12.9 °C -15 °C 1031 hPa Calm   3.2 km/h 84 % 0 mm
20:44 -12.9 °C -15 °C 1030.7 hPa Calm   3.2 km/h 84 % 0 mm
21:00 -12.9 °C -15 °C 1030.7 hPa Calm   3.2 km/h 84 % 0 mm
21:15 -12.9 °C -15 °C 1031 hPa Calm     85 % 0 mm
21:30 -12.9 °C -15 °C 1031 hPa Calm     85 % 0 mm
21:45 -12.8 °C -15 °C 1030.7 hPa Calm     85 % 0 mm
22:00 -12.8 °C -15 °C 1031 hPa Calm     85 % 0 mm
22:15 -12.8 °C -15 °C 1031 hPa Calm     85 % 0 mm
22:30 -12.7 °C -14.4 °C 1030.4 hPa Calm     85 % 0 mm
22:45 -12.7 °C -14.4 °C 1030.4 hPa Calm   3.2 km/h 86 % 0 mm
23:00 -12.6 °C -14.4 °C 1030 hPa Calm     86 % 0 mm
23:15 -12.6 °C -14.4 °C 1030 hPa Calm     86 % 0 mm
23:30 -12.6 °C -14.4 °C 1030 hPa Calm     86 % 0 mm
23:45 -12.6 °C -14.4 °C 1030 hPa Calm     86 % 0 mm
Des Moines Weather and Climate
Compliments of Weather Underground - 3 mb

Script developed by  Jim McMurry - jmcmurry@mwt.net Adapted for the template by  Wim van der Kuil - Leuven-Template.eu

You find our weather info also at:

Weather Underground

Equipment we use:

Weather-station
Davis VP2 Plus

Weather-program
Davis Weatherlink.Com

Weather-server
iMac (Retina 4K, 21.5-inch, Late 2015)

Provider
Hostmonster.com

Davis VP2 Plus

Davis Weatherlink.Com

iMac (Retina 4K, 21.5-inch, Late 2015)

Hostmonster.com